Time;durP1;ratioP1;P1;durP2;ratioP2;P2;SDS_P1;SDS_P2;PMS_P1;PMS_P2;Temp;Humidity;BMP_temperature;BMP_pressure;BME280_temperature;BME280_humidity;BME280_pressure;Samples;Min_cycle;Max_cycle;Signal;HPM_P1;HPM_P2
2022/06/11 00:00:18;;;;;;;6.28;1.90;;;17.90;99.90;;;;;;7351505;32;20287;-64
2022/06/11 00:04:29;;;;;;;3.87;1.87;;;17.90;99.90;;;;;;7347743;32;20169;-63
2022/06/11 00:08:31;;;;;;;3.75;1.67;;;17.90;99.90;;;;;;7340537;32;20588;-64
2022/06/11 00:12:33;;;;;;;4.53;1.70;;;18.00;99.90;;;;;;7352220;32;20217;-63
2022/06/11 00:16:36;;;;;;;7.82;1.90;;;17.90;99.90;;;;;;7338212;32;20224;-63
2022/06/11 00:20:38;;;;;;;6.60;2.00;;;17.90;99.90;;;;;;7350979;32;20198;-64
2022/06/11 00:24:40;;;;;;;4.12;1.80;;;17.90;99.90;;;;;;7345267;32;20149;-64
2022/06/11 00:28:41;;;;;;;4.37;1.60;;;17.90;99.90;;;;;;7342307;32;20130;-63
2022/06/11 00:32:43;;;;;;;6.35;2.12;;;17.90;99.90;;;;;;7353263;32;20149;-62
2022/06/11 00:36:46;;;;;;;7.37;2.00;;;17.90;99.90;;;;;;7350425;32;20625;-62
2022/06/11 00:40:51;;;;;;;6.00;2.40;;;17.90;99.90;;;;;;7349687;32;20216;-62
2022/06/11 00:45:18;;;;;;;10.52;2.17;;;17.90;99.90;;;;;;7349564;32;20207;-62
2022/06/11 00:49:31;;;;;;;8.38;2.00;;;18.00;99.90;;;;;;7349965;32;20204;-62
2022/06/11 00:53:45;;;;;;;5.05;1.95;;;17.90;99.90;;;;;;7349821;32;20203;-62
2022/06/11 00:57:53;;;;;;;7.53;2.10;;;17.90;99.90;;;;;;7340290;32;20131;-63
2022/06/11 01:01:55;;;;;;;7.40;1.90;;;18.00;99.90;;;;;;7348339;32;20550;-62
2022/06/11 01:06:10;;;;;;;4.32;1.80;;;18.20;99.90;;;;;;7343156;32;20107;-62
2022/06/11 01:10:20;;;;;;;3.35;1.62;;;18.20;99.90;;;;;;7345126;32;20147;-62
2022/06/11 01:14:21;;;;;;;5.25;2.00;;;18.20;99.90;;;;;;7348456;32;20784;-63
2022/06/11 01:18:47;;;;;;;3.30;1.40;;;18.30;99.90;;;;;;7354052;32;20107;-62
2022/06/11 01:23:11;;;;;;;3.92;1.58;;;18.30;99.90;;;;;;7346706;32;20126;-63
2022/06/11 01:27:28;;;;;;;8.45;1.77;;;18.20;99.90;;;;;;7350061;32;20103;-62
2022/06/11 01:31:45;;;;;;;5.45;1.80;;;18.30;99.90;;;;;;7343164;32;20107;-63
2022/06/11 01:36:14;;;;;;;7.22;1.73;;;18.30;99.90;;;;;;7349510;32;20107;-62
2022/06/11 01:40:39;;;;;;;5.15;1.85;;;18.30;99.90;;;;;;7351287;32;20129;-63
2022/06/11 01:44:42;;;;;;;7.35;2.20;;;18.20;99.90;;;;;;7349117;32;20111;-63
2022/06/11 01:48:55;;;;;;;5.15;1.58;;;18.10;99.90;;;;;;7339895;32;20115;-62
2022/06/11 01:53:06;;;;;;;6.90;1.60;;;17.90;99.90;;;;;;7345710;32;20126;-62
2022/06/11 01:57:29;;;;;;;4.47;1.80;;;17.90;99.90;;;;;;7349189;32;20110;-62
2022/06/11 02:01:34;;;;;;;7.18;1.73;;;17.70;99.90;;;;;;7345205;32;20111;-62
2022/06/11 02:05:44;;;;;;;6.07;1.48;;;17.60;99.90;;;;;;7331801;32;20666;-62
2022/06/11 02:10:03;;;;;;;7.32;1.85;;;17.40;99.90;;;;;;7348437;32;20111;-62
2022/06/11 02:14:32;;;;;;;6.12;2.10;;;17.20;99.90;;;;;;7352427;32;20125;-62
2022/06/11 02:18:35;;;;;;;7.12;1.90;;;16.90;99.90;;;;;;7341302;32;20108;-60
2022/06/11 02:22:57;;;;;;;5.78;1.45;;;16.70;99.90;;;;;;7341536;32;20126;-62
2022/06/11 02:27:03;;;;;;;4.85;2.00;;;16.60;99.90;;;;;;7349379;32;20203;-62
2022/06/11 02:31:08;;;;;;;6.13;2.00;;;16.50;99.90;;;;;;7349090;32;20158;-62
2022/06/11 02:35:13;;;;;;;5.37;2.08;;;16.30;99.90;;;;;;7348346;32;20119;-62
2022/06/11 02:39:15;;;;;;;6.22;2.33;;;16.20;99.90;;;;;;7348353;32;20586;-62
2022/06/11 02:43:18;;;;;;;5.40;1.90;;;16.00;99.90;;;;;;7348388;32;20107;-62
2022/06/11 02:47:21;;;;;;;9.07;2.47;;;15.90;99.90;;;;;;7348763;32;20355;-63
2022/06/11 02:51:24;;;;;;;6.47;2.33;;;15.70;99.90;;;;;;7347762;32;20559;-62
2022/06/11 02:55:27;;;;;;;5.87;2.47;;;15.50;99.90;;;;;;7347191;32;20206;-62
2022/06/11 02:59:29;;;;;;;6.78;2.05;;;15.40;99.90;;;;;;7347017;32;20104;-62
2022/06/11 03:03:31;;;;;;;6.25;2.10;;;15.30;99.90;;;;;;7329938;32;20138;-62
2022/06/11 03:07:33;;;;;;;8.25;2.50;;;15.20;99.90;;;;;;7343258;32;20111;-62
2022/06/11 03:11:34;;;;;;;6.78;2.40;;;15.00;99.90;;;;;;7349499;32;20136;-62
2022/06/11 03:15:36;;;;;;;5.97;2.47;;;14.90;99.90;;;;;;7342173;32;20234;-62
2022/06/11 03:19:39;;;;;;;7.12;2.65;;;14.80;99.90;;;;;;7351807;32;20194;-62
2022/06/11 03:23:42;;;;;;;4.22;2.40;;;14.70;99.90;;;;;;7350958;32;20225;-62
2022/06/11 03:27:44;;;;;;;5.10;2.50;;;14.60;99.90;;;;;;7351336;32;20125;-62
2022/06/11 03:31:47;;;;;;;6.07;2.50;;;14.60;99.90;;;;;;7351728;32;20107;-62
2022/06/11 03:35:49;;;;;;;5.62;2.87;;;14.50;99.90;;;;;;7351948;32;20126;-61
2022/06/11 03:39:51;;;;;;;5.03;2.30;;;14.30;99.90;;;;;;7350217;32;20134;-63
2022/06/11 03:43:53;;;;;;;14.70;2.83;;;14.30;99.90;;;;;;7342440;32;20126;-62
2022/06/11 03:47:55;;;;;;;7.45;2.78;;;14.30;99.90;;;;;;7347987;32;20198;-62
2022/06/11 03:52:01;;;;;;;10.50;2.70;;;14.20;99.90;;;;;;7351391;32;20108;-62
2022/06/11 03:56:05;;;;;;;5.75;2.65;;;14.20;99.90;;;;;;7350558;32;20335;-62
2022/06/11 04:00:11;;;;;;;3.50;2.40;;;14.20;99.90;;;;;;7350776;32;20149;-62
2022/06/11 04:04:15;;;;;;;7.07;3.08;;;14.20;99.90;;;;;;7337521;32;20135;-63
2022/06/11 04:08:17;;;;;;;7.18;2.70;;;14.20;99.90;;;;;;7350310;32;20124;-62
2022/06/11 04:12:19;;;;;;;5.03;2.72;;;14.10;99.90;;;;;;7354055;32;20103;-63
2022/06/11 04:16:46;;;;;;;6.00;2.65;;;14.10;99.90;;;;;;7344975;32;20203;-62
2022/06/11 04:20:48;;;;;;;7.40;2.78;;;14.20;99.90;;;;;;7334306;32;20346;-62
2022/06/11 04:24:50;;;;;;;3.47;2.47;;;14.20;99.90;;;;;;7347824;32;20130;-62
2022/06/11 04:28:52;;;;;;;6.28;2.67;;;14.30;99.90;;;;;;7350504;32;20697;-63
2022/06/11 04:32:54;;;;;;;4.32;2.50;;;14.50;99.90;;;;;;7350186;32;20125;-62
2022/06/11 04:36:57;;;;;;;4.35;2.45;;;14.70;99.90;;;;;;7343620;32;20110;-61
2022/06/11 04:40:59;;;;;;;4.03;2.20;;;15.00;99.90;;;;;;7348778;32;20228;-62
2022/06/11 04:45:03;;;;;;;5.93;2.30;;;15.20;99.90;;;;;;7344011;32;20458;-62
2022/06/11 04:49:05;;;;;;;4.35;2.40;;;15.50;99.90;;;;;;7349671;32;20121;-62
2022/06/11 04:53:07;;;;;;;4.97;2.25;;;15.80;99.90;;;;;;7348893;32;20690;-62
2022/06/11 04:57:10;;;;;;;7.12;2.00;;;16.40;99.90;;;;;;7344280;32;20523;-62
2022/06/11 05:01:12;;;;;;;6.30;2.33;;;16.90;99.90;;;;;;7353189;32;20099;-62
2022/06/11 05:05:14;;;;;;;6.18;1.85;;;17.50;99.90;;;;;;7341307;32;20699;-62
2022/06/11 05:09:18;;;;;;;4.70;1.90;;;18.50;99.90;;;;;;7348571;32;20534;-62
2022/06/11 05:13:20;;;;;;;5.10;1.75;;;18.60;99.90;;;;;;7352926;32;20130;-62
2022/06/11 05:17:22;;;;;;;6.55;2.65;;;18.40;99.90;;;;;;7349274;32;20236;-63
2022/06/11 05:21:24;;;;;;;8.23;2.20;;;18.30;99.90;;;;;;7350733;32;20107;-62
2022/06/11 05:25:26;;;;;;;9.40;2.78;;;18.20;99.90;;;;;;7340395;32;20126;-62
2022/06/11 05:29:33;;;;;;;5.10;2.70;;;18.10;99.90;;;;;;7349266;32;20107;-62
2022/06/11 05:33:35;;;;;;;6.72;2.87;;;18.20;99.90;;;;;;7346440;32;20242;-63
2022/06/11 05:37:39;;;;;;;6.55;2.53;;;18.20;99.90;;;;;;7340984;32;20151;-62
2022/06/11 05:41:41;;;;;;;8.38;2.60;;;18.10;99.90;;;;;;7351283;32;20135;-62
2022/06/11 05:45:45;;;;;;;6.60;2.45;;;18.10;99.90;;;;;;7344796;32;20143;-62
2022/06/11 05:49:49;;;;;;;6.35;2.58;;;18.00;99.90;;;;;;7338339;32;20130;-62
2022/06/11 05:53:55;;;;;;;5.35;2.20;;;18.10;99.90;;;;;;7344384;32;20178;-62
2022/06/11 05:58:01;;;;;;;6.87;2.60;;;18.10;99.90;;;;;;7336202;32;20126;-63
2022/06/11 06:02:08;;;;;;;8.48;2.67;;;18.10;99.90;;;;;;7333141;32;20146;-63
2022/06/11 06:06:10;;;;;;;3.55;2.03;;;18.20;99.90;;;;;;7343152;32;20107;-62
2022/06/11 06:10:12;;;;;;;6.05;2.67;;;18.30;99.90;;;;;;7347944;32;20153;-62
2022/06/11 06:14:14;;;;;;;8.45;2.65;;;18.40;99.90;;;;;;7343722;32;20706;-63
2022/06/11 06:18:16;;;;;;;6.22;2.25;;;18.60;99.90;;;;;;7339411;32;20107;-62
2022/06/11 06:22:17;;;;;;;6.93;2.70;;;18.50;99.90;;;;;;7340041;32;20490;-63
2022/06/11 06:26:20;;;;;;;5.50;2.42;;;18.60;99.90;;;;;;7344508;32;20213;-63
2022/06/11 06:30:21;;;;;;;4.78;2.45;;;18.70;99.90;;;;;;7348303;32;20157;-64
2022/06/11 06:34:23;;;;;;;7.95;2.50;;;18.80;99.90;;;;;;7346918;32;20737;-66
2022/06/11 06:38:25;;;;;;;6.90;3.05;;;18.90;99.90;;;;;;7347868;32;20100;-66
2022/06/11 06:42:27;;;;;;;10.25;2.67;;;18.90;99.90;;;;;;7347723;32;20137;-66
2022/06/11 06:46:28;;;;;;;7.15;2.40;;;19.00;99.90;;;;;;7353117;32;20198;-66
2022/06/11 06:50:30;;;;;;;8.75;3.22;;;19.00;99.90;;;;;;7353003;32;20119;-66
2022/06/11 06:54:32;;;;;;;6.70;2.90;;;19.20;99.90;;;;;;7352144;32;20539;-65
2022/06/11 06:58:34;;;;;;;8.45;2.65;;;19.30;99.90;;;;;;7349763;32;20234;-66
2022/06/11 07:02:35;;;;;;;7.87;3.08;;;19.60;99.90;;;;;;7352884;32;20099;-66
2022/06/11 07:06:38;;;;;;;4.57;2.45;;;19.70;99.90;;;;;;7344185;32;20504;-67
2022/06/11 07:10:40;;;;;;;10.13;2.40;;;19.60;99.90;;;;;;7352892;32;20125;-66
2022/06/11 07:14:41;;;;;;;8.07;3.25;;;19.60;99.90;;;;;;7352453;32;20565;-67
2022/06/11 07:18:57;;;;;;;10.27;2.78;;;19.60;99.90;;;;;;7351375;32;20115;-66
2022/06/11 07:23:20;;;;;;;4.82;2.05;;;19.50;99.90;;;;;;7352318;32;20536;-67
2022/06/11 07:27:28;;;;;;;5.82;2.50;;;19.60;99.90;;;;;;7352704;32;20111;-66
2022/06/11 07:31:31;;;;;;;9.38;2.25;;;20.00;99.90;;;;;;7350563;32;20194;-66
2022/06/11 07:35:35;;;;;;;3.95;1.73;;;19.80;99.90;;;;;;7355238;32;20244;-66
2022/06/11 07:39:37;;;;;;;6.75;1.80;;;20.00;99.90;;;;;;7341625;32;20114;-66
2022/06/11 07:43:39;;;;;;;5.80;1.90;;;20.10;99.90;;;;;;7351914;32;20236;-65
2022/06/11 07:47:54;;;;;;;4.75;1.60;;;20.20;99.90;;;;;;7351120;32;20185;-66
2022/06/11 07:51:57;;;;;;;6.30;2.35;;;20.50;99.90;;;;;;7348995;32;20180;-66
2022/06/11 07:55:59;;;;;;;6.85;1.85;;;21.00;99.90;;;;;;7347345;32;20161;-66
2022/06/11 08:00:03;;;;;;;4.03;1.80;;;21.80;99.90;;;;;;7350649;32;20104;-66
2022/06/11 08:04:05;;;;;;;4.22;1.70;;;22.10;99.90;;;;;;7350804;32;20121;-66
2022/06/11 08:08:07;;;;;;;5.50;1.67;;;22.00;99.90;;;;;;7346339;32;20124;-65
2022/06/11 08:12:09;;;;;;;4.00;1.40;;;21.80;99.90;;;;;;7342142;32;20805;-66
2022/06/11 08:16:11;;;;;;;3.53;1.70;;;21.60;99.90;;;;;;7350937;32;20104;-66
2022/06/11 08:20:18;;;;;;;4.57;1.70;;;21.60;99.90;;;;;;7350879;32;20115;-65
2022/06/11 08:24:19;;;;;;;6.68;1.73;;;21.20;99.90;;;;;;7344371;32;20227;-65
2022/06/11 08:28:22;;;;;;;4.20;1.55;;;21.20;99.90;;;;;;7351166;32;20156;-66
2022/06/11 08:32:23;;;;;;;4.95;2.03;;;21.40;99.90;;;;;;7350805;32;20137;-66
2022/06/11 08:36:25;;;;;;;4.82;1.80;;;21.70;99.90;;;;;;7350646;32;20731;-66
2022/06/11 08:40:35;;;;;;;5.80;1.52;;;22.10;99.90;;;;;;7352410;32;20115;-67
2022/06/11 08:44:37;;;;;;;3.22;1.37;;;22.10;99.90;;;;;;7347541;32;20261;-67
2022/06/11 08:48:42;;;;;;;4.95;1.50;;;22.10;99.90;;;;;;7349731;32;20106;-67
2022/06/11 08:52:45;;;;;;;6.43;1.48;;;22.00;99.90;;;;;;7345930;32;20916;-67
2022/06/11 08:57:23;;;;;;;4.10;1.37;;;21.90;99.90;;;;;;7342451;32;20552;-66
2022/06/11 09:01:46;;;;;;;5.95;1.67;;;21.70;99.90;;;;;;7316178;32;20474;-67
2022/06/11 09:06:10;;;;;;;6.82;1.70;;;21.50;99.90;;;;;;7349803;32;20554;-67
2022/06/11 09:10:48;;;;;;;5.37;1.67;;;21.20;99.90;;;;;;7351469;32;20511;-67
2022/06/11 09:15:19;;;;;;;4.32;1.95;;;21.10;99.90;;;;;;7347970;32;20209;-67
2022/06/11 09:19:26;;;;;;;6.30;2.20;;;21.20;99.90;;;;;;7349856;32;20142;-67
2022/06/11 09:23:31;;;;;;;6.50;2.03;;;21.10;99.90;;;;;;7349475;32;20110;-67
2022/06/11 09:27:44;;;;;;;6.22;1.73;;;21.00;99.90;;;;;;7348664;32;20244;-67
2022/06/11 09:32:15;;;;;;;4.68;1.60;;;20.90;99.90;;;;;;7347331;32;20768;-67
2022/06/11 09:36:30;;;;;;;5.47;2.00;;;21.00;99.90;;;;;;7347547;32;20484;-67
2022/06/11 09:40:42;;;;;;;7.60;1.83;;;21.10;99.90;;;;;;7348980;32;20141;-67
2022/06/11 09:44:52;;;;;;;6.43;2.12;;;21.00;99.90;;;;;;7346459;32;20141;-67
2022/06/11 09:48:54;;;;;;;4.45;1.70;;;21.30;99.90;;;;;;7349413;32;20457;-68
2022/06/11 09:53:14;;;;;;;4.82;2.00;;;21.30;99.90;;;;;;7349246;32;20104;-68
2022/06/11 09:57:28;;;;;;;5.97;2.67;;;21.50;99.90;;;;;;7348253;32;20281;-68
2022/06/11 10:01:38;;;;;;;6.25;2.60;;;22.20;99.90;;;;;;7350967;32;20247;-66
2022/06/11 10:05:55;;;;;;;5.50;2.40;;;23.00;99.90;;;;;;7348662;32;20275;-67
2022/06/11 10:10:38;;;;;;;6.37;2.20;;;23.50;99.90;;;;;;7346593;32;20133;-67
2022/06/11 10:14:52;;;;;;;5.85;2.70;;;24.10;99.90;;;;;;7320978;32;20192;-66
2022/06/11 10:19:02;;;;;;;3.20;2.00;;;24.40;99.90;;;;;;7344705;32;20208;-66
2022/06/11 10:23:19;;;;;;;5.68;2.25;;;24.40;99.90;;;;;;7353392;32;20176;-64
2022/06/11 10:27:24;;;;;;;5.53;2.20;;;24.30;99.90;;;;;;7353795;32;20470;-65
2022/06/11 10:31:36;;;;;;;4.65;2.28;;;23.80;99.90;;;;;;7352681;32;20126;-66
2022/06/11 10:35:45;;;;;;;7.25;2.40;;;23.70;99.90;;;;;;7339425;32;20484;-66
2022/06/11 10:39:52;;;;;;;5.93;2.80;;;23.70;99.90;;;;;;7342207;32;20126;-67
2022/06/11 10:44:21;;;;;;;6.75;3.10;;;23.30;99.90;;;;;;7352702;32;20533;-66
2022/06/11 10:48:26;;;;;;;7.37;2.30;;;22.80;99.90;;;;;;7350248;32;20132;-67
2022/06/11 10:52:41;;;;;;;4.00;2.60;;;22.90;99.90;;;;;;7341225;32;20687;-66
2022/06/11 10:57:25;;;;;;;5.72;2.80;;;22.90;99.90;;;;;;7353215;32;20130;-66
2022/06/11 11:01:32;;;;;;;5.32;2.67;;;23.10;99.90;;;;;;7352503;32;20257;-66
2022/06/11 11:05:59;;;;;;;4.05;2.35;;;23.90;99.90;;;;;;7347894;32;20377;-66
2022/06/11 11:10:05;;;;;;;4.37;2.53;;;24.10;99.90;;;;;;7351970;32;20189;-67
2022/06/11 11:14:26;;;;;;;4.97;2.72;;;24.20;99.90;;;;;;7352842;32;20095;-67
2022/06/11 11:18:40;;;;;;;6.18;2.50;;;24.10;99.90;;;;;;7344619;32;20458;-67
2022/06/11 11:22:52;;;;;;;5.50;1.92;;;23.60;99.90;;;;;;7351548;32;20202;-68
2022/06/11 11:27:14;;;;;;;5.15;2.30;;;23.20;99.90;;;;;;7352530;32;20135;-68
2022/06/11 11:31:28;;;;;;;5.55;2.00;;;23.60;99.90;;;;;;7343770;32;20186;-66
2022/06/11 11:35:38;;;;;;;2.95;1.65;;;23.70;99.90;;;;;;7351076;32;20900;-66
2022/06/11 11:40:02;;;;;;;7.85;2.60;;;23.50;99.90;;;;;;7347295;32;20222;-67
2022/06/11 11:44:04;;;;;;;5.50;2.17;;;23.60;99.90;;;;;;7347138;32;20590;-66
2022/06/11 11:48:11;;;;;;;4.93;2.28;;;23.60;99.90;;;;;;7352292;32;20119;-66
2022/06/11 11:52:18;;;;;;;5.68;1.52;;;23.30;99.90;;;;;;7341974;32;20111;-66
2022/06/11 11:56:38;;;;;;;6.12;1.80;;;23.30;99.90;;;;;;7349482;32;21443;-66
2022/06/11 12:00:55;;;;;;;4.85;1.60;;;23.60;99.90;;;;;;7351042;32;20108;-66
2022/06/11 12:05:08;;;;;;;4.62;2.00;;;23.30;99.90;;;;;;7351586;32;20134;-66
2022/06/11 12:09:18;;;;;;;7.00;2.10;;;23.50;99.90;;;;;;7345983;32;20107;-67
2022/06/11 12:13:25;;;;;;;2.97;1.67;;;23.30;99.90;;;;;;7351079;32;20107;-66
2022/06/11 12:17:47;;;;;;;;;;;23.00;99.90;;;;;;7346937;32;20510;-67
2022/06/11 12:22:15;;;;;;;4.45;1.83;;;23.20;99.90;;;;;;7351453;32;20126;-67
2022/06/11 12:26:26;;;;;;;7.40;2.03;;;23.60;99.90;;;;;;7349721;32;20235;-67
2022/06/11 12:30:29;;;;;;;5.25;1.83;;;23.70;99.90;;;;;;7344397;32;20565;-67
2022/06/11 12:34:31;;;;;;;5.85;1.50;;;23.70;99.90;;;;;;7351828;32;20198;-67
2022/06/11 12:38:59;;;;;;;3.42;1.33;;;23.50;99.90;;;;;;7350809;32;20103;-67
2022/06/11 12:43:14;;;;;;;4.43;1.40;;;23.40;99.90;;;;;;7348797;32;20138;-66
2022/06/11 12:47:37;;;;;;;5.45;1.50;;;23.70;99.90;;;;;;7344310;32;20126;-67
2022/06/11 12:52:11;;;;;;;3.25;1.27;;;23.80;99.90;;;;;;7351557;32;20179;-67
2022/06/11 12:56:21;;;;;;;4.28;1.30;;;23.50;99.90;;;;;;7354058;32;20178;-67
2022/06/11 13:01:28;;;;;;;2.72;0.95;;;23.60;99.90;;;;;;7345738;32;20103;-67
2022/06/11 13:05:48;;;;;;;2.00;1.10;;;23.90;99.90;;;;;;7217590;32;20198;-67
2022/06/11 13:10:12;;;;;;;4.45;1.15;;;23.50;99.90;;;;;;7291903;32;20530;-67
2022/06/11 13:14:36;;;;;;;3.58;0.95;;;23.80;99.90;;;;;;7349079;32;20167;-66
2022/06/11 13:18:59;;;;;;;4.75;1.17;;;24.20;99.90;;;;;;7349385;32;20123;-67
2022/06/11 13:23:16;;;;;;;4.43;1.00;;;24.60;99.90;;;;;;7352653;32;20193;-67
2022/06/11 13:27:50;;;;;;;4.70;1.10;;;24.70;99.90;;;;;;7333936;32;20731;-67
2022/06/11 13:32:33;;;;;;;2.97;0.90;;;24.60;99.90;;;;;;7341342;32;20168;-67
2022/06/11 13:36:46;;;;;;;5.43;1.05;;;24.00;99.90;;;;;;7348549;32;20110;-66
2022/06/11 13:41:06;;;;;;;3.30;1.10;;;24.30;99.90;;;;;;7347266;32;20107;-67
2022/06/11 13:45:39;;;;;;;3.42;1.10;;;24.50;99.90;;;;;;7348983;32;20229;-67
2022/06/11 13:49:50;;;;;;;2.20;0.85;;;24.10;99.90;;;;;;7348044;32;20186;-67
2022/06/11 13:58:50;;;;;;;3.70;0.88;;;24.30;99.90;;;;;;7348410;32;20103;-66
2022/06/11 14:02:55;;;;;;;4.15;1.25;;;24.60;99.90;;;;;;7349060;32;20145;-66
2022/06/11 14:07:00;;;;;;;3.85;0.80;;;24.80;99.90;;;;;;7347296;32;20110;-66
2022/06/11 14:11:03;;;;;;;;;;;24.90;99.90;;;;;;7341972;32;20108;-66
2022/06/11 14:15:22;;;;;;;2.17;0.70;;;25.10;99.90;;;;;;7346475;32;20500;-66
2022/06/11 14:19:24;;;;;;;4.28;1.15;;;25.20;99.90;;;;;;7346321;32;20166;-67
2022/06/11 14:23:25;;;;;;;2.47;0.77;;;25.00;99.90;;;;;;7336575;32;20183;-67
2022/06/11 14:27:38;;;;;;;2.22;0.70;;;25.30;99.90;;;;;;7348804;32;20137;-66
2022/06/11 14:32:00;;;;;;;3.37;0.80;;;25.30;99.90;;;;;;7348989;32;20495;-67
2022/06/11 14:36:05;;;;;;;2.92;0.82;;;25.20;99.90;;;;;;7342606;32;20762;-67
2022/06/11 14:40:33;;;;;;;4.10;0.73;;;25.20;99.90;;;;;;7348288;32;20125;-67
2022/06/11 14:44:35;;;;;;;3.12;0.80;;;25.50;99.90;;;;;;7348723;32;20107;-67
2022/06/11 14:48:36;;;;;;;3.95;0.90;;;25.50;99.90;;;;;;7344758;32;20107;-67
2022/06/11 14:52:47;;;;;;;3.75;0.90;;;25.20;99.90;;;;;;7346589;32;20138;-67
2022/06/11 14:57:10;;;;;;;4.62;1.40;;;25.20;99.90;;;;;;7348093;32;20478;-67
2022/06/11 15:01:20;;;;;;;3.60;0.73;;;25.30;99.90;;;;;;7347454;32;20123;-66
2022/06/11 15:05:53;;;;;;;4.20;0.90;;;25.20;99.90;;;;;;7345325;32;20440;-66
2022/06/11 15:10:13;;;;;;;2.65;0.95;;;25.30;99.90;;;;;;7335701;32;20703;-66
2022/06/11 15:14:33;;;;;;;2.45;0.62;;;25.40;99.90;;;;;;7349471;32;20111;-66
2022/06/11 15:18:42;;;;;;;3.70;0.60;;;25.70;99.90;;;;;;7352436;32;20135;-66
2022/06/11 15:22:48;;;;;;;3.33;0.80;;;25.60;99.00;;;;;;7352304;32;20217;-66
2022/06/11 15:26:56;;;;;;;6.00;0.98;;;25.40;98.80;;;;;;7351836;32;20104;-66
2022/06/11 15:31:09;;;;;;;3.08;0.75;;;25.10;98.30;;;;;;7349372;32;20103;-66
2022/06/11 15:35:33;;;;;;;2.97;0.68;;;25.00;98.30;;;;;;7338854;32;20229;-67
2022/06/11 15:39:38;;;;;;;3.05;0.80;;;24.70;98.10;;;;;;7351803;32;20110;-66
2022/06/11 15:43:49;;;;;;;3.35;0.82;;;24.60;99.00;;;;;;7352643;32;20112;-67
2022/06/11 15:48:17;;;;;;;2.90;0.90;;;24.50;99.70;;;;;;7351418;32;20495;-67
2022/06/11 15:53:01;;;;;;;3.87;0.90;;;24.60;99.00;;;;;;7330279;32;20122;-66
2022/06/11 15:57:21;;;;;;;2.97;0.70;;;24.70;99.40;;;;;;7352783;32;20238;-67
2022/06/11 16:01:23;;;;;;;2.70;0.65;;;24.50;99.70;;;;;;7339708;32;20233;-67
2022/06/11 16:05:28;;;;;;;6.28;0.90;;;24.40;99.90;;;;;;7345713;32;20115;-67
2022/06/11 16:09:34;;;;;;;2.05;0.80;;;24.50;99.70;;;;;;7351397;32;20485;-66
2022/06/11 16:13:36;;;;;;;1.92;0.60;;;24.50;99.90;;;;;;7343064;32;20130;-66
2022/06/11 16:17:42;;;;;;;3.87;0.88;;;24.50;99.20;;;;;;7345985;32;20122;-66
2022/06/11 16:21:58;;;;;;;2.45;0.70;;;24.40;99.90;;;;;;7351112;32;20107;-67
2022/06/11 16:26:02;;;;;;;1.90;0.80;;;24.20;99.90;;;;;;7351713;32;20103;-66
2022/06/11 16:30:35;;;;;;;2.87;0.85;;;24.20;99.90;;;;;;7350500;32;20154;-67
2022/06/11 16:34:36;;;;;;;2.95;1.12;;;24.40;99.90;;;;;;7346457;32;20111;-67
2022/06/11 16:38:47;;;;;;;4.15;0.90;;;24.50;99.90;;;;;;7350017;32;20111;-67
2022/06/11 16:42:55;;;;;;;4.65;0.82;;;24.40;99.90;;;;;;7350672;32;20130;-66
2022/06/11 16:47:15;;;;;;;4.70;1.08;;;24.50;99.40;;;;;;7354065;32;20115;-67
2022/06/11 17:00:32;;;;;;;4.18;1.00;;;24.40;99.90;;;;;;7350067;32;20111;-67
2022/06/11 17:04:34;;;;;;;6.20;1.05;;;24.20;99.90;;;;;;7347508;32;20238;-66
2022/06/11 17:08:41;;;;;;;4.07;1.02;;;24.00;99.90;;;;;;7346766;32;20126;-66
2022/06/11 17:12:45;;;;;;;3.03;0.90;;;23.80;99.90;;;;;;7348873;32;20219;-66
2022/06/11 17:16:47;;;;;;;5.37;1.30;;;23.70;99.90;;;;;;7353516;32;20107;-66
2022/06/11 17:20:52;;;;;;;6.22;1.33;;;23.60;99.90;;;;;;7349379;32;20229;-66
2022/06/11 17:24:58;;;;;;;4.68;1.10;;;23.60;99.90;;;;;;7348550;32;20157;-67
2022/06/11 17:29:01;;;;;;;5.43;1.03;;;23.40;99.90;;;;;;7350873;32;20217;-66
2022/06/11 17:33:02;;;;;;;4.57;1.15;;;23.20;99.90;;;;;;7352623;32;20190;-67
2022/06/11 17:37:12;;;;;;;5.03;1.45;;;23.30;99.90;;;;;;7348458;32;20129;-67
2022/06/11 17:41:18;;;;;;;3.40;0.77;;;23.20;99.90;;;;;;7348237;32;20126;-67
2022/06/11 17:45:22;;;;;;;5.85;1.12;;;23.20;99.90;;;;;;7348866;32;20488;-67
2022/06/11 17:49:25;;;;;;;4.78;1.17;;;23.00;99.90;;;;;;7342942;32;20103;-67
2022/06/11 17:53:28;;;;;;;2.67;0.75;;;22.90;99.90;;;;;;7348494;32;20103;-67
2022/06/11 17:57:30;;;;;;;4.03;1.08;;;22.90;99.90;;;;;;7348161;32;20103;-66
2022/06/11 18:01:34;;;;;;;5.10;1.25;;;22.80;99.90;;;;;;7348910;32;20190;-66
2022/06/11 18:05:40;;;;;;;5.57;1.27;;;22.80;99.90;;;;;;7346846;32;20552;-66
2022/06/11 18:09:41;;;;;;;6.00;1.20;;;22.80;99.90;;;;;;7347963;32;20255;-67
2022/06/11 18:13:43;;;;;;;4.60;1.00;;;22.80;99.90;;;;;;7340548;32;20135;-66
2022/06/11 18:17:46;;;;;;;3.00;0.95;;;22.70;99.90;;;;;;7344541;32;20126;-67
2022/06/11 18:26:07;;;;;;;2.58;1.00;;;22.60;99.90;;;;;;7348593;32;20175;-67
2022/06/11 18:30:10;;;;;;;4.00;1.27;;;22.50;99.90;;;;;;7348726;32;20130;-66
2022/06/11 18:34:12;;;;;;;3.60;1.00;;;22.50;99.90;;;;;;7343841;32;20111;-67
2022/06/11 18:38:14;;;;;;;5.95;1.48;;;22.60;99.90;;;;;;7349429;32;20142;-66
2022/06/11 18:42:16;;;;;;;5.07;1.08;;;22.50;99.90;;;;;;7354093;32;20214;-68
2022/06/11 18:46:19;;;;;;;5.15;1.23;;;22.50;99.90;;;;;;7354718;32;20215;-68
2022/06/11 18:50:23;;;;;;;6.60;1.30;;;22.50;99.90;;;;;;7353347;32;20107;-68
2022/06/11 18:54:25;;;;;;;4.75;1.30;;;22.30;99.90;;;;;;7353808;32;20549;-68
2022/06/11 18:58:27;;;;;;;4.05;1.20;;;22.30;99.90;;;;;;7353508;32;20130;-67
2022/06/11 19:02:28;;;;;;;4.55;1.17;;;22.10;99.90;;;;;;7353764;32;20809;-68
2022/06/11 19:06:31;;;;;;;4.45;1.20;;;22.00;99.90;;;;;;7351998;32;20135;-68
2022/06/11 19:10:36;;;;;;;7.55;1.40;;;22.00;99.90;;;;;;7353342;32;20447;-68
2022/06/11 19:14:38;;;;;;;5.22;1.30;;;21.90;99.90;;;;;;7345799;32;20334;-68
2022/06/11 19:18:40;;;;;;;6.30;1.40;;;21.80;99.90;;;;;;7353404;32;20154;-68
2022/06/11 19:22:42;;;;;;;5.75;1.10;;;21.60;99.90;;;;;;7359128;32;20270;-68
2022/06/11 19:26:45;;;;;;;5.95;1.33;;;21.50;99.90;;;;;;7352782;32;20724;-68
2022/06/11 19:30:50;;;;;;;4.47;1.30;;;21.30;99.90;;;;;;7351915;32;20126;-68
2022/06/11 19:34:51;;;;;;;4.30;0.95;;;21.30;99.90;;;;;;7351517;32;20282;-68
2022/06/11 19:38:57;;;;;;;3.95;1.35;;;21.20;99.90;;;;;;7343596;32;20103;-67
2022/06/11 19:43:01;;;;;;;3.67;1.08;;;21.10;99.90;;;;;;7352387;32;20180;-67
2022/06/11 19:47:04;;;;;;;7.55;2.05;;;21.00;99.90;;;;;;7353351;32;20745;-67
2022/06/11 19:51:08;;;;;;;4.87;1.33;;;21.00;99.90;;;;;;7349825;32;20107;-67
2022/06/11 19:55:13;;;;;;;7.32;1.45;;;20.90;99.90;;;;;;7351766;32;20452;-67
2022/06/11 19:59:15;;;;;;;5.68;1.27;;;20.80;99.90;;;;;;7351659;32;20099;-64
2022/06/11 20:03:17;;;;;;;5.45;1.58;;;20.70;99.90;;;;;;7352343;32;20107;-62
2022/06/11 20:07:19;;;;;;;7.72;1.50;;;20.60;99.90;;;;;;7345540;32;20122;-64
2022/06/11 20:11:24;;;;;;;6.97;2.08;;;20.50;99.90;;;;;;7351915;32;20102;-64
2022/06/11 20:15:25;;;;;;;5.55;1.77;;;20.40;99.90;;;;;;7342922;32;20107;-65
2022/06/11 20:19:28;;;;;;;5.65;1.60;;;20.40;99.90;;;;;;7351243;32;20637;-64
2022/06/11 20:23:30;;;;;;;7.95;1.67;;;20.30;99.90;;;;;;7345012;32;20107;-64
2022/06/11 20:27:32;;;;;;;9.70;1.40;;;20.30;99.90;;;;;;7351159;32;20198;-64
2022/06/11 20:31:34;;;;;;;5.87;1.20;;;20.20;99.90;;;;;;7351940;32;20107;-63
2022/06/11 20:35:37;;;;;;;10.15;1.73;;;20.00;99.90;;;;;;7348812;32;20481;-64
2022/06/11 20:39:39;;;;;;;4.43;1.55;;;19.80;99.90;;;;;;7348326;32;20555;-63
2022/06/11 20:43:41;;;;;;;5.75;1.35;;;19.80;99.90;;;;;;7351392;32;20585;-63
2022/06/11 20:47:43;;;;;;;9.68;1.90;;;19.60;99.90;;;;;;7338552;32;20773;-65
2022/06/11 20:51:44;;;;;;;8.13;1.70;;;19.50;99.90;;;;;;7340283;32;20099;-63
2022/06/11 20:55:47;;;;;;;6.50;1.55;;;19.30;99.90;;;;;;7344158;32;20150;-64
2022/06/11 20:59:50;;;;;;;8.82;1.60;;;19.20;99.90;;;;;;7349766;32;20581;-65
2022/06/11 21:03:52;;;;;;;8.40;1.42;;;19.10;99.90;;;;;;7346087;32;20229;-64
2022/06/11 21:12:15;;;;;;;9.73;1.80;;;18.90;99.90;;;;;;7350080;32;20164;-64
2022/06/11 21:16:17;;;;;;;6.47;1.40;;;18.70;99.90;;;;;;7348840;32;20141;-63
2022/06/11 21:20:26;;;;;;;7.20;1.48;;;18.60;99.90;;;;;;7348769;32;20111;-64
2022/06/11 21:24:33;;;;;;;6.18;1.73;;;18.40;99.90;;;;;;7350235;32;20258;-63
2022/06/11 21:28:35;;;;;;;7.32;1.85;;;18.30;99.90;;;;;;7349427;32;20103;-64
2022/06/11 21:32:37;;;;;;;10.52;2.08;;;18.20;99.90;;;;;;7349461;32;20103;-64
2022/06/11 21:36:39;;;;;;;5.90;1.85;;;18.10;99.90;;;;;;7350347;32;20106;-63
2022/06/11 21:41:42;;;;;;;11.90;2.53;;;18.00;99.90;;;;;;7349491;32;20111;-64
2022/06/11 21:45:03;;;;;;;10.65;2.22;;;17.90;99.90;;;;;;7348324;32;20224;-64
2022/06/11 21:49:04;;;;;;;7.45;1.98;;;17.80;99.90;;;;;;7349057;32;20577;-65
2022/06/11 21:53:06;;;;;;;8.70;2.30;;;17.70;99.90;;;;;;7349930;32;20134;-64
2022/06/11 21:57:11;;;;;;;10.68;3.15;;;17.50;99.90;;;;;;7349715;32;20103;-64